sensor_id;sensor_type;location;lat;lon;timestamp;P1;durP1;ratioP1;P2;durP2;ratioP2
58647;SDS011;45992;45.920;20.074;2022-09-19T00:01:16;7.55;;;3.65;;
58647;SDS011;45992;45.920;20.074;2022-09-19T00:03:43;7.13;;;3.00;;
58647;SDS011;45992;45.920;20.074;2022-09-19T00:06:11;6.38;;;3.40;;
58647;SDS011;45992;45.920;20.074;2022-09-19T00:08:38;7.10;;;3.17;;
58647;SDS011;45992;45.920;20.074;2022-09-19T00:13:31;6.53;;;2.92;;
58647;SDS011;45992;45.920;20.074;2022-09-19T00:15:58;7.88;;;3.40;;
58647;SDS011;45992;45.920;20.074;2022-09-19T00:18:26;6.38;;;3.10;;
58647;SDS011;45992;45.920;20.074;2022-09-19T00:20:53;6.93;;;2.80;;
58647;SDS011;45992;45.920;20.074;2022-09-19T00:23:20;6.40;;;2.65;;
58647;SDS011;45992;45.920;20.074;2022-09-19T00:26:06;6.15;;;2.47;;
58647;SDS011;45992;45.920;20.074;2022-09-19T00:28:33;7.18;;;2.83;;
58647;SDS011;45992;45.920;20.074;2022-09-19T00:31:00;5.55;;;2.40;;
58647;SDS011;45992;45.920;20.074;2022-09-19T00:33:26;6.88;;;2.70;;
58647;SDS011;45992;45.920;20.074;2022-09-19T00:35:55;4.90;;;1.83;;
58647;SDS011;45992;45.920;20.074;2022-09-19T00:38:21;4.22;;;1.40;;
58647;SDS011;45992;45.920;20.074;2022-09-19T00:40:48;4.90;;;1.70;;
58647;SDS011;45992;45.920;20.074;2022-09-19T00:43:15;6.65;;;1.60;;
58647;SDS011;45992;45.920;20.074;2022-09-19T00:45:42;5.28;;;1.90;;
58647;SDS011;45992;45.920;20.074;2022-09-19T00:48:08;5.80;;;2.50;;
58647;SDS011;45992;45.920;20.074;2022-09-19T00:50:36;5.97;;;2.08;;
58647;SDS011;45992;45.920;20.074;2022-09-19T00:53:13;6.18;;;2.17;;
58647;SDS011;45992;45.920;20.074;2022-09-19T00:55:40;5.53;;;1.80;;
58647;SDS011;45992;45.920;20.074;2022-09-19T01:01:04;5.55;;;2.13;;
58647;SDS011;45992;45.920;20.074;2022-09-19T01:03:31;5.05;;;1.70;;
58647;SDS011;45992;45.920;20.074;2022-09-19T01:16:35;5.28;;;1.90;;
58647;SDS011;45992;45.920;20.074;2022-09-19T01:19:17;5.15;;;1.80;;
58647;SDS011;45992;45.920;20.074;2022-09-19T01:24:36;5.15;;;1.90;;
58647;SDS011;45992;45.920;20.074;2022-09-19T01:29:39;6.32;;;1.85;;
58647;SDS011;45992;45.920;20.074;2022-09-19T01:32:08;4.70;;;1.58;;
58647;SDS011;45992;45.920;20.074;2022-09-19T01:34:42;6.25;;;1.65;;
58647;SDS011;45992;45.920;20.074;2022-09-19T01:39:38;6.95;;;1.75;;
58647;SDS011;45992;45.920;20.074;2022-09-19T01:42:05;5.10;;;1.80;;
58647;SDS011;45992;45.920;20.074;2022-09-19T01:44:31;6.13;;;1.60;;
58647;SDS011;45992;45.920;20.074;2022-09-19T01:50:09;5.55;;;1.80;;
58647;SDS011;45992;45.920;20.074;2022-09-19T02:00:07;5.20;;;1.73;;
58647;SDS011;45992;45.920;20.074;2022-09-19T02:10:40;6.88;;;2.20;;
58647;SDS011;45992;45.920;20.074;2022-09-19T02:13:08;5.68;;;1.85;;
58647;SDS011;45992;45.920;20.074;2022-09-19T02:18:03;5.28;;;2.70;;
58647;SDS011;45992;45.920;20.074;2022-09-19T02:20:31;5.88;;;2.50;;
58647;SDS011;45992;45.920;20.074;2022-09-19T02:22:59;5.93;;;2.22;;
58647;SDS011;45992;45.920;20.074;2022-09-19T02:25:27;5.20;;;2.20;;
58647;SDS011;45992;45.920;20.074;2022-09-19T02:27:58;5.97;;;2.53;;
58647;SDS011;45992;45.920;20.074;2022-09-19T02:30:25;7.10;;;1.70;;
58647;SDS011;45992;45.920;20.074;2022-09-19T02:32:52;5.07;;;1.85;;
58647;SDS011;45992;45.920;20.074;2022-09-19T02:35:24;4.95;;;1.70;;
58647;SDS011;45992;45.920;20.074;2022-09-19T02:38:00;5.15;;;1.73;;
58647;SDS011;45992;45.920;20.074;2022-09-19T02:40:35;6.18;;;3.15;;
58647;SDS011;45992;45.920;20.074;2022-09-19T02:45:41;6.80;;;2.50;;
58647;SDS011;45992;45.920;20.074;2022-09-19T02:48:17;5.45;;;1.83;;
58647;SDS011;45992;45.920;20.074;2022-09-19T02:50:53;5.33;;;1.53;;
58647;SDS011;45992;45.920;20.074;2022-09-19T02:53:24;5.68;;;2.00;;
58647;SDS011;45992;45.920;20.074;2022-09-19T02:55:55;5.85;;;2.00;;
58647;SDS011;45992;45.920;20.074;2022-09-19T02:58:22;6.55;;;1.88;;
58647;SDS011;45992;45.920;20.074;2022-09-19T03:00:51;5.82;;;1.95;;
58647;SDS011;45992;45.920;20.074;2022-09-19T03:03:20;5.10;;;1.85;;
58647;SDS011;45992;45.920;20.074;2022-09-19T03:06:07;4.45;;;1.50;;
58647;SDS011;45992;45.920;20.074;2022-09-19T03:08:34;5.60;;;2.00;;
58647;SDS011;45992;45.920;20.074;2022-09-19T03:11:03;5.65;;;2.03;;
58647;SDS011;45992;45.920;20.074;2022-09-19T03:13:32;5.72;;;2.20;;
58647;SDS011;45992;45.920;20.074;2022-09-19T03:18:27;6.00;;;2.00;;
58647;SDS011;45992;45.920;20.074;2022-09-19T03:20:55;4.60;;;1.60;;
58647;SDS011;45992;45.920;20.074;2022-09-19T03:23:41;5.05;;;1.90;;
58647;SDS011;45992;45.920;20.074;2022-09-19T03:26:09;4.95;;;1.80;;
58647;SDS011;45992;45.920;20.074;2022-09-19T03:28:36;4.57;;;1.70;;
58647;SDS011;45992;45.920;20.074;2022-09-19T03:31:03;4.18;;;1.63;;
58647;SDS011;45992;45.920;20.074;2022-09-19T03:33:29;5.00;;;1.58;;
58647;SDS011;45992;45.920;20.074;2022-09-19T03:35:55;5.43;;;1.90;;
58647;SDS011;45992;45.920;20.074;2022-09-19T03:38:24;4.50;;;1.63;;
58647;SDS011;45992;45.920;20.074;2022-09-19T03:40:50;6.18;;;1.95;;
58647;SDS011;45992;45.920;20.074;2022-09-19T03:43:16;7.20;;;2.07;;
58647;SDS011;45992;45.920;20.074;2022-09-19T03:45:42;5.05;;;1.90;;
58647;SDS011;45992;45.920;20.074;2022-09-19T03:48:08;7.05;;;2.00;;
58647;SDS011;45992;45.920;20.074;2022-09-19T03:50:34;6.20;;;1.87;;
58647;SDS011;45992;45.920;20.074;2022-09-19T03:53:00;6.07;;;1.87;;
58647;SDS011;45992;45.920;20.074;2022-09-19T03:55:26;5.20;;;1.80;;
58647;SDS011;45992;45.920;20.074;2022-09-19T03:57:52;5.20;;;1.87;;
58647;SDS011;45992;45.920;20.074;2022-09-19T04:00:18;4.90;;;1.73;;
58647;SDS011;45992;45.920;20.074;2022-09-19T04:02:45;4.95;;;1.92;;
58647;SDS011;45992;45.920;20.074;2022-09-19T04:05:11;5.40;;;1.80;;
58647;SDS011;45992;45.920;20.074;2022-09-19T04:10:05;6.60;;;1.85;;
58647;SDS011;45992;45.920;20.074;2022-09-19T04:12:31;8.07;;;1.83;;
58647;SDS011;45992;45.920;20.074;2022-09-19T04:14:58;4.97;;;1.67;;
58647;SDS011;45992;45.920;20.074;2022-09-19T04:17:25;6.50;;;2.00;;
58647;SDS011;45992;45.920;20.074;2022-09-19T04:19:52;6.35;;;2.22;;
58647;SDS011;45992;45.920;20.074;2022-09-19T04:22:19;6.05;;;1.90;;
58647;SDS011;45992;45.920;20.074;2022-09-19T04:24:46;5.20;;;2.00;;
58647;SDS011;45992;45.920;20.074;2022-09-19T04:27:13;5.10;;;2.10;;
58647;SDS011;45992;45.920;20.074;2022-09-19T04:29:39;4.77;;;1.77;;
58647;SDS011;45992;45.920;20.074;2022-09-19T04:32:08;5.15;;;2.00;;
58647;SDS011;45992;45.920;20.074;2022-09-19T04:34:35;5.45;;;1.77;;
58647;SDS011;45992;45.920;20.074;2022-09-19T04:37:01;6.28;;;1.77;;
58647;SDS011;45992;45.920;20.074;2022-09-19T04:39:28;4.88;;;1.85;;
58647;SDS011;45992;45.920;20.074;2022-09-19T04:41:57;5.05;;;1.98;;
58647;SDS011;45992;45.920;20.074;2022-09-19T04:44:25;4.53;;;1.40;;
58647;SDS011;45992;45.920;20.074;2022-09-19T04:46:53;5.13;;;1.80;;
58647;SDS011;45992;45.920;20.074;2022-09-19T04:49:19;3.75;;;1.30;;
58647;SDS011;45992;45.920;20.074;2022-09-19T04:51:45;3.87;;;1.20;;
58647;SDS011;45992;45.920;20.074;2022-09-19T04:54:11;4.45;;;1.40;;
58647;SDS011;45992;45.920;20.074;2022-09-19T04:56:39;4.75;;;1.42;;
58647;SDS011;45992;45.920;20.074;2022-09-19T04:59:09;4.97;;;1.40;;
58647;SDS011;45992;45.920;20.074;2022-09-19T05:01:35;4.93;;;1.40;;
58647;SDS011;45992;45.920;20.074;2022-09-19T05:04:01;5.38;;;1.48;;
58647;SDS011;45992;45.920;20.074;2022-09-19T05:06:29;4.05;;;1.33;;
58647;SDS011;45992;45.920;20.074;2022-09-19T05:08:55;5.07;;;1.38;;
58647;SDS011;45992;45.920;20.074;2022-09-19T05:11:23;3.65;;;1.30;;
58647;SDS011;45992;45.920;20.074;2022-09-19T05:13:49;5.05;;;1.73;;
58647;SDS011;45992;45.920;20.074;2022-09-19T05:16:16;6.32;;;1.77;;
58647;SDS011;45992;45.920;20.074;2022-09-19T05:18:43;7.93;;;2.60;;
58647;SDS011;45992;45.920;20.074;2022-09-19T05:21:12;6.45;;;2.60;;
58647;SDS011;45992;45.920;20.074;2022-09-19T05:23:38;6.07;;;1.98;;
58647;SDS011;45992;45.920;20.074;2022-09-19T05:26:05;6.78;;;1.88;;
58647;SDS011;45992;45.920;20.074;2022-09-19T05:28:32;5.00;;;1.70;;
58647;SDS011;45992;45.920;20.074;2022-09-19T05:30:58;5.82;;;2.15;;
58647;SDS011;45992;45.920;20.074;2022-09-19T05:33:29;5.47;;;1.73;;
58647;SDS011;45992;45.920;20.074;2022-09-19T05:35:56;5.65;;;2.40;;
58647;SDS011;45992;45.920;20.074;2022-09-19T05:38:25;6.63;;;2.90;;
58647;SDS011;45992;45.920;20.074;2022-09-19T05:40:55;6.70;;;2.92;;
58647;SDS011;45992;45.920;20.074;2022-09-19T05:43:21;5.97;;;2.40;;
58647;SDS011;45992;45.920;20.074;2022-09-19T05:45:47;5.57;;;2.00;;
58647;SDS011;45992;45.920;20.074;2022-09-19T05:50:41;6.13;;;1.90;;
58647;SDS011;45992;45.920;20.074;2022-09-19T05:53:08;5.72;;;2.40;;
58647;SDS011;45992;45.920;20.074;2022-09-19T05:55:53;5.43;;;2.10;;
58647;SDS011;45992;45.920;20.074;2022-09-19T05:58:19;16.00;;;9.55;;
58647;SDS011;45992;45.920;20.074;2022-09-19T06:00:45;8.25;;;3.10;;
58647;SDS011;45992;45.920;20.074;2022-09-19T06:03:12;8.45;;;3.15;;
58647;SDS011;45992;45.920;20.074;2022-09-19T06:05:43;7.22;;;3.10;;
58647;SDS011;45992;45.920;20.074;2022-09-19T06:08:12;6.38;;;2.65;;
58647;SDS011;45992;45.920;20.074;2022-09-19T06:10:40;5.85;;;2.78;;
58647;SDS011;45992;45.920;20.074;2022-09-19T06:13:06;6.43;;;3.00;;
58647;SDS011;45992;45.920;20.074;2022-09-19T06:17:58;6.80;;;2.60;;
58647;SDS011;45992;45.920;20.074;2022-09-19T06:20:24;9.10;;;3.57;;
58647;SDS011;45992;45.920;20.074;2022-09-19T06:22:57;9.90;;;4.85;;
58647;SDS011;45992;45.920;20.074;2022-09-19T06:25:25;7.90;;;4.25;;
58647;SDS011;45992;45.920;20.074;2022-09-19T06:27:54;7.45;;;4.13;;
58647;SDS011;45992;45.920;20.074;2022-09-19T06:32:47;7.30;;;3.25;;
58647;SDS011;45992;45.920;20.074;2022-09-19T06:35:13;9.77;;;4.73;;
58647;SDS011;45992;45.920;20.074;2022-09-19T06:37:39;8.13;;;4.18;;
58647;SDS011;45992;45.920;20.074;2022-09-19T06:40:05;8.98;;;4.25;;
58647;SDS011;45992;45.920;20.074;2022-09-19T06:42:31;8.15;;;3.83;;
58647;SDS011;45992;45.920;20.074;2022-09-19T06:44:57;9.27;;;4.57;;
58647;SDS011;45992;45.920;20.074;2022-09-19T06:47:23;7.77;;;4.83;;
58647;SDS011;45992;45.920;20.074;2022-09-19T06:49:49;11.40;;;7.97;;
58647;SDS011;45992;45.920;20.074;2022-09-19T06:52:17;11.05;;;7.95;;
58647;SDS011;45992;45.920;20.074;2022-09-19T06:54:43;9.23;;;5.63;;
58647;SDS011;45992;45.920;20.074;2022-09-19T06:57:09;7.60;;;4.77;;
58647;SDS011;45992;45.920;20.074;2022-09-19T06:59:36;7.40;;;3.65;;
58647;SDS011;45992;45.920;20.074;2022-09-19T07:02:03;7.60;;;3.92;;
58647;SDS011;45992;45.920;20.074;2022-09-19T07:04:29;6.97;;;3.30;;
58647;SDS011;45992;45.920;20.074;2022-09-19T07:09:22;10.55;;;6.43;;
58647;SDS011;45992;45.920;20.074;2022-09-19T07:11:51;7.72;;;5.43;;
58647;SDS011;45992;45.920;20.074;2022-09-19T07:14:21;6.75;;;3.50;;
58647;SDS011;45992;45.920;20.074;2022-09-19T07:16:47;7.03;;;3.78;;
58647;SDS011;45992;45.920;20.074;2022-09-19T07:19:13;7.23;;;3.73;;
58647;SDS011;45992;45.920;20.074;2022-09-19T07:21:39;6.90;;;3.58;;
58647;SDS011;45992;45.920;20.074;2022-09-19T07:24:06;10.07;;;4.75;;
58647;SDS011;45992;45.920;20.074;2022-09-19T07:26:32;10.73;;;5.32;;
58647;SDS011;45992;45.920;20.074;2022-09-19T07:28:58;7.20;;;3.75;;
58647;SDS011;45992;45.920;20.074;2022-09-19T07:31:27;8.07;;;3.88;;
58647;SDS011;45992;45.920;20.074;2022-09-19T07:33:53;9.30;;;5.13;;
58647;SDS011;45992;45.920;20.074;2022-09-19T07:36:20;7.75;;;4.65;;
58647;SDS011;45992;45.920;20.074;2022-09-19T07:38:47;9.45;;;4.63;;
58647;SDS011;45992;45.920;20.074;2022-09-19T07:41:13;8.32;;;3.67;;
58647;SDS011;45992;45.920;20.074;2022-09-19T07:43:39;7.00;;;3.45;;
58647;SDS011;45992;45.920;20.074;2022-09-19T07:46:06;6.45;;;3.00;;
58647;SDS011;45992;45.920;20.074;2022-09-19T07:48:32;6.90;;;3.55;;
58647;SDS011;45992;45.920;20.074;2022-09-19T07:50:58;9.77;;;5.67;;
58647;SDS011;45992;45.920;20.074;2022-09-19T07:53:27;12.13;;;6.45;;
58647;SDS011;45992;45.920;20.074;2022-09-19T07:55:53;9.03;;;5.07;;
58647;SDS011;45992;45.920;20.074;2022-09-19T07:58:21;7.68;;;4.10;;
58647;SDS011;45992;45.920;20.074;2022-09-19T08:00:47;7.40;;;3.45;;
58647;SDS011;45992;45.920;20.074;2022-09-19T08:03:15;9.35;;;3.42;;
58647;SDS011;45992;45.920;20.074;2022-09-19T08:05:43;7.57;;;3.67;;
58647;SDS011;45992;45.920;20.074;2022-09-19T08:08:10;6.60;;;3.17;;
58647;SDS011;45992;45.920;20.074;2022-09-19T08:13:03;7.72;;;3.63;;
58647;SDS011;45992;45.920;20.074;2022-09-19T08:15:29;7.97;;;4.80;;
58647;SDS011;45992;45.920;20.074;2022-09-19T08:17:59;7.55;;;4.55;;
58647;SDS011;45992;45.920;20.074;2022-09-19T08:20:26;6.38;;;3.13;;
58647;SDS011;45992;45.920;20.074;2022-09-19T08:25:18;6.20;;;2.88;;
58647;SDS011;45992;45.920;20.074;2022-09-19T08:27:45;8.00;;;6.13;;
58647;SDS011;45992;45.920;20.074;2022-09-19T08:30:11;7.57;;;5.35;;
58647;SDS011;45992;45.920;20.074;2022-09-19T08:32:37;7.53;;;4.68;;
58647;SDS011;45992;45.920;20.074;2022-09-19T08:35:03;5.50;;;2.70;;
58647;SDS011;45992;45.920;20.074;2022-09-19T08:37:29;7.45;;;3.42;;
58647;SDS011;45992;45.920;20.074;2022-09-19T08:47:55;6.93;;;2.80;;
58647;SDS011;45992;45.920;20.074;2022-09-19T08:50:23;9.23;;;3.78;;
58647;SDS011;45992;45.920;20.074;2022-09-19T08:52:52;7.18;;;3.25;;
58647;SDS011;45992;45.920;20.074;2022-09-19T08:55:20;5.88;;;2.88;;
58647;SDS011;45992;45.920;20.074;2022-09-19T08:57:58;7.20;;;2.90;;
58647;SDS011;45992;45.920;20.074;2022-09-19T09:00:26;6.53;;;3.90;;
58647;SDS011;45992;45.920;20.074;2022-09-19T09:03:02;6.57;;;3.60;;
58647;SDS011;45992;45.920;20.074;2022-09-19T09:10:48;7.78;;;4.35;;
58647;SDS011;45992;45.920;20.074;2022-09-19T09:13:52;8.50;;;4.80;;
58647;SDS011;45992;45.920;20.074;2022-09-19T09:18:46;8.68;;;4.53;;
58647;SDS011;45992;45.920;20.074;2022-09-19T09:23:57;10.30;;;4.50;;
58647;SDS011;45992;45.920;20.074;2022-09-19T09:26:27;7.32;;;3.83;;
58647;SDS011;45992;45.920;20.074;2022-09-19T09:31:30;8.25;;;5.03;;
58647;SDS011;45992;45.920;20.074;2022-09-19T09:34:00;14.25;;;10.60;;
58647;SDS011;45992;45.920;20.074;2022-09-19T09:36:37;13.43;;;9.95;;
58647;SDS011;45992;45.920;20.074;2022-09-19T09:39:14;9.45;;;5.40;;
58647;SDS011;45992;45.920;20.074;2022-09-19T09:41:50;11.57;;;7.82;;
58647;SDS011;45992;45.920;20.074;2022-09-19T09:44:42;8.50;;;4.90;;
58647;SDS011;45992;45.920;20.074;2022-09-19T09:49:50;8.38;;;5.95;;
58647;SDS011;45992;45.920;20.074;2022-09-19T10:00:18;8.57;;;4.25;;
58647;SDS011;45992;45.920;20.074;2022-09-19T10:06:11;6.18;;;3.13;;
58647;SDS011;45992;45.920;20.074;2022-09-19T10:13:37;7.95;;;3.80;;
58647;SDS011;45992;45.920;20.074;2022-09-19T10:16:05;7.18;;;3.20;;
58647;SDS011;45992;45.920;20.074;2022-09-19T10:18:39;8.52;;;4.43;;
58647;SDS011;45992;45.920;20.074;2022-09-19T10:21:06;7.20;;;3.00;;
58647;SDS011;45992;45.920;20.074;2022-09-19T10:23:33;7.25;;;2.90;;
58647;SDS011;45992;45.920;20.074;2022-09-19T10:26:02;7.18;;;2.83;;
58647;SDS011;45992;45.920;20.074;2022-09-19T10:28:33;5.43;;;2.50;;
58647;SDS011;45992;45.920;20.074;2022-09-19T10:31:03;7.63;;;2.83;;
58647;SDS011;45992;45.920;20.074;2022-09-19T10:33:47;6.18;;;2.85;;
58647;SDS011;45992;45.920;20.074;2022-09-19T10:36:21;6.47;;;2.90;;
58647;SDS011;45992;45.920;20.074;2022-09-19T10:38:52;6.00;;;2.33;;
58647;SDS011;45992;45.920;20.074;2022-09-19T10:41:19;5.85;;;2.58;;
58647;SDS011;45992;45.920;20.074;2022-09-19T10:43:50;6.80;;;2.53;;
58647;SDS011;45992;45.920;20.074;2022-09-19T10:46:25;5.85;;;2.60;;
58647;SDS011;45992;45.920;20.074;2022-09-19T10:48:56;5.57;;;2.28;;
58647;SDS011;45992;45.920;20.074;2022-09-19T10:51:42;6.32;;;2.40;;
58647;SDS011;45992;45.920;20.074;2022-09-19T10:54:09;5.85;;;2.80;;
58647;SDS011;45992;45.920;20.074;2022-09-19T10:56:37;5.78;;;2.55;;
58647;SDS011;45992;45.920;20.074;2022-09-19T11:01:39;6.72;;;3.50;;
58647;SDS011;45992;45.920;20.074;2022-09-19T11:04:22;8.10;;;4.82;;
58647;SDS011;45992;45.920;20.074;2022-09-19T11:06:59;7.72;;;4.10;;
58647;SDS011;45992;45.920;20.074;2022-09-19T11:09:36;8.35;;;4.32;;
58647;SDS011;45992;45.920;20.074;2022-09-19T11:12:12;8.25;;;3.55;;
58647;SDS011;45992;45.920;20.074;2022-09-19T11:14:39;8.13;;;4.22;;
58647;SDS011;45992;45.920;20.074;2022-09-19T11:19:52;7.05;;;3.78;;
58647;SDS011;45992;45.920;20.074;2022-09-19T11:24:53;7.65;;;3.72;;
58647;SDS011;45992;45.920;20.074;2022-09-19T11:32:40;6.72;;;3.42;;
58647;SDS011;45992;45.920;20.074;2022-09-19T11:35:22;6.53;;;3.30;;
58647;SDS011;45992;45.920;20.074;2022-09-19T11:43:28;5.97;;;2.80;;
58647;SDS011;45992;45.920;20.074;2022-09-19T12:11:47;6.20;;;2.15;;
58647;SDS011;45992;45.920;20.074;2022-09-19T12:14:37;5.68;;;2.10;;
58647;SDS011;45992;45.920;20.074;2022-09-19T12:17:07;6.93;;;3.40;;
58647;SDS011;45992;45.920;20.074;2022-09-19T12:19:39;5.68;;;2.50;;
58647;SDS011;45992;45.920;20.074;2022-09-19T12:22:13;7.95;;;3.65;;
58647;SDS011;45992;45.920;20.074;2022-09-19T12:24:42;7.20;;;2.05;;
58647;SDS011;45992;45.920;20.074;2022-09-19T12:27:37;5.75;;;2.30;;
58647;SDS011;45992;45.920;20.074;2022-09-19T12:30:10;5.53;;;2.50;;
58647;SDS011;45992;45.920;20.074;2022-09-19T12:38:20;5.65;;;1.80;;
58647;SDS011;45992;45.920;20.074;2022-09-19T12:48:28;6.63;;;3.25;;
58647;SDS011;45992;45.920;20.074;2022-09-19T12:50:56;8.00;;;3.97;;
58647;SDS011;45992;45.920;20.074;2022-09-19T12:55:54;9.02;;;4.50;;
58647;SDS011;45992;45.920;20.074;2022-09-19T12:58:23;8.23;;;4.10;;
58647;SDS011;45992;45.920;20.074;2022-09-19T13:00:52;5.93;;;2.75;;
58647;SDS011;45992;45.920;20.074;2022-09-19T13:03:25;5.78;;;2.45;;
58647;SDS011;45992;45.920;20.074;2022-09-19T13:05:54;9.73;;;5.53;;
58647;SDS011;45992;45.920;20.074;2022-09-19T13:08:32;7.72;;;3.13;;
58647;SDS011;45992;45.920;20.074;2022-09-19T13:13:33;7.20;;;3.13;;
58647;SDS011;45992;45.920;20.074;2022-09-19T13:18:29;8.00;;;3.20;;
58647;SDS011;45992;45.920;20.074;2022-09-19T13:21:18;20.30;;;10.27;;
58647;SDS011;45992;45.920;20.074;2022-09-19T13:24:04;17.45;;;9.93;;
58647;SDS011;45992;45.920;20.074;2022-09-19T13:29:06;18.58;;;11.60;;
58647;SDS011;45992;45.920;20.074;2022-09-19T13:36:59;8.98;;;4.38;;
58647;SDS011;45992;45.920;20.074;2022-09-19T13:39:52;8.02;;;4.32;;
58647;SDS011;45992;45.920;20.074;2022-09-19T13:47:51;63.88;;;37.22;;
58647;SDS011;45992;45.920;20.074;2022-09-19T13:50:37;41.08;;;24.63;;
58647;SDS011;45992;45.920;20.074;2022-09-19T13:53:21;30.25;;;17.10;;
58647;SDS011;45992;45.920;20.074;2022-09-19T13:55:56;13.13;;;8.15;;
58647;SDS011;45992;45.920;20.074;2022-09-19T14:03:31;7.18;;;3.92;;
58647;SDS011;45992;45.920;20.074;2022-09-19T14:06:17;7.70;;;3.70;;
58647;SDS011;45992;45.920;20.074;2022-09-19T14:08:46;7.40;;;3.63;;
58647;SDS011;45992;45.920;20.074;2022-09-19T14:11:14;7.82;;;3.08;;
58647;SDS011;45992;45.920;20.074;2022-09-19T14:13:46;5.40;;;2.45;;
58647;SDS011;45992;45.920;20.074;2022-09-19T14:16:28;5.30;;;2.17;;
58647;SDS011;45992;45.920;20.074;2022-09-19T14:19:02;4.68;;;1.55;;
58647;SDS011;45992;45.920;20.074;2022-09-19T14:23:58;4.45;;;1.60;;
58647;SDS011;45992;45.920;20.074;2022-09-19T14:26:41;4.00;;;1.48;;
58647;SDS011;45992;45.920;20.074;2022-09-19T14:37:25;5.32;;;1.90;;
58647;SDS011;45992;45.920;20.074;2022-09-19T14:45:30;5.90;;;2.40;;
58647;SDS011;45992;45.920;20.074;2022-09-19T14:48:02;5.68;;;2.75;;
58647;SDS011;45992;45.920;20.074;2022-09-19T14:53:02;6.82;;;3.72;;
58647;SDS011;45992;45.920;20.074;2022-09-19T14:55:45;6.78;;;3.22;;
58647;SDS011;45992;45.920;20.074;2022-09-19T14:58:30;9.00;;;3.55;;
58647;SDS011;45992;45.920;20.074;2022-09-19T15:01:13;6.32;;;2.42;;
58647;SDS011;45992;45.920;20.074;2022-09-19T15:03:44;6.97;;;2.88;;
58647;SDS011;45992;45.920;20.074;2022-09-19T15:06:15;5.22;;;2.13;;
58647;SDS011;45992;45.920;20.074;2022-09-19T15:08:46;4.88;;;1.83;;
58647;SDS011;45992;45.920;20.074;2022-09-19T15:11:13;5.28;;;1.98;;
58647;SDS011;45992;45.920;20.074;2022-09-19T15:13:46;6.13;;;1.92;;
58647;SDS011;45992;45.920;20.074;2022-09-19T15:16:12;6.70;;;2.75;;
58647;SDS011;45992;45.920;20.074;2022-09-19T15:18:42;7.75;;;3.10;;
58647;SDS011;45992;45.920;20.074;2022-09-19T15:21:11;9.13;;;4.00;;
58647;SDS011;45992;45.920;20.074;2022-09-19T15:23:40;8.80;;;3.70;;
58647;SDS011;45992;45.920;20.074;2022-09-19T15:26:06;8.27;;;3.38;;
58647;SDS011;45992;45.920;20.074;2022-09-19T15:28:36;9.02;;;3.67;;
58647;SDS011;45992;45.920;20.074;2022-09-19T15:33:40;6.53;;;2.90;;
58647;SDS011;45992;45.920;20.074;2022-09-19T15:38:36;8.52;;;2.72;;
58647;SDS011;45992;45.920;20.074;2022-09-19T15:41:06;6.10;;;2.50;;
58647;SDS011;45992;45.920;20.074;2022-09-19T15:43:33;7.07;;;3.30;;
58647;SDS011;45992;45.920;20.074;2022-09-19T15:46:01;6.93;;;3.20;;
58647;SDS011;45992;45.920;20.074;2022-09-19T15:48:32;7.30;;;2.65;;
58647;SDS011;45992;45.920;20.074;2022-09-19T15:51:02;6.85;;;2.80;;
58647;SDS011;45992;45.920;20.074;2022-09-19T16:00:50;7.07;;;2.92;;
58647;SDS011;45992;45.920;20.074;2022-09-19T16:03:18;6.05;;;2.28;;
58647;SDS011;45992;45.920;20.074;2022-09-19T16:05:45;6.07;;;2.00;;
58647;SDS011;45992;45.920;20.074;2022-09-19T16:08:24;4.68;;;1.70;;
58647;SDS011;45992;45.920;20.074;2022-09-19T16:14:03;7.15;;;3.83;;
58647;SDS011;45992;45.920;20.074;2022-09-19T16:16:34;7.43;;;3.78;;
58647;SDS011;45992;45.920;20.074;2022-09-19T16:19:00;7.88;;;4.30;;
58647;SDS011;45992;45.920;20.074;2022-09-19T16:23:52;7.23;;;3.50;;
58647;SDS011;45992;45.920;20.074;2022-09-19T16:26:19;6.53;;;2.50;;
58647;SDS011;45992;45.920;20.074;2022-09-19T16:28:52;6.72;;;2.80;;
58647;SDS011;45992;45.920;20.074;2022-09-19T16:33:51;7.28;;;3.78;;
58647;SDS011;45992;45.920;20.074;2022-09-19T16:36:18;9.93;;;4.75;;
58647;SDS011;45992;45.920;20.074;2022-09-19T16:41:23;16.35;;;7.75;;
58647;SDS011;45992;45.920;20.074;2022-09-19T16:46:17;21.53;;;10.30;;
58647;SDS011;45992;45.920;20.074;2022-09-19T16:48:43;42.53;;;19.70;;
58647;SDS011;45992;45.920;20.074;2022-09-19T16:51:11;35.23;;;16.57;;
58647;SDS011;45992;45.920;20.074;2022-09-19T16:53:37;18.23;;;9.80;;
58647;SDS011;45992;45.920;20.074;2022-09-19T16:56:03;13.23;;;8.27;;
58647;SDS011;45992;45.920;20.074;2022-09-19T16:58:29;17.05;;;7.53;;
58647;SDS011;45992;45.920;20.074;2022-09-19T17:00:55;18.83;;;9.07;;
58647;SDS011;45992;45.920;20.074;2022-09-19T17:03:21;26.20;;;12.57;;
58647;SDS011;45992;45.920;20.074;2022-09-19T17:05:47;22.17;;;10.73;;
58647;SDS011;45992;45.920;20.074;2022-09-19T17:08:13;10.55;;;5.88;;
58647;SDS011;45992;45.920;20.074;2022-09-19T17:10:40;11.70;;;6.05;;
58647;SDS011;45992;45.920;20.074;2022-09-19T17:13:09;12.23;;;5.82;;
58647;SDS011;45992;45.920;20.074;2022-09-19T17:15:41;13.13;;;6.38;;
58647;SDS011;45992;45.920;20.074;2022-09-19T17:18:08;14.43;;;6.05;;
58647;SDS011;45992;45.920;20.074;2022-09-19T17:20:36;11.90;;;4.70;;
58647;SDS011;45992;45.920;20.074;2022-09-19T17:23:02;10.63;;;5.68;;
58647;SDS011;45992;45.920;20.074;2022-09-19T17:25:36;12.05;;;5.72;;
58647;SDS011;45992;45.920;20.074;2022-09-19T17:28:04;12.90;;;6.43;;
58647;SDS011;45992;45.920;20.074;2022-09-19T17:30:30;10.65;;;5.93;;
58647;SDS011;45992;45.920;20.074;2022-09-19T17:32:56;12.02;;;5.72;;
58647;SDS011;45992;45.920;20.074;2022-09-19T17:35:22;12.20;;;5.27;;
58647;SDS011;45992;45.920;20.074;2022-09-19T17:37:48;11.20;;;5.60;;
58647;SDS011;45992;45.920;20.074;2022-09-19T17:40:14;11.93;;;5.93;;
58647;SDS011;45992;45.920;20.074;2022-09-19T17:42:41;11.25;;;5.40;;
58647;SDS011;45992;45.920;20.074;2022-09-19T17:45:07;10.53;;;5.60;;
58647;SDS011;45992;45.920;20.074;2022-09-19T17:47:34;13.15;;;6.95;;
58647;SDS011;45992;45.920;20.074;2022-09-19T17:50:00;11.10;;;7.20;;
58647;SDS011;45992;45.920;20.074;2022-09-19T17:52:26;12.07;;;7.17;;
58647;SDS011;45992;45.920;20.074;2022-09-19T17:54:52;15.27;;;9.13;;
58647;SDS011;45992;45.920;20.074;2022-09-19T17:57:19;18.15;;;14.38;;
58647;SDS011;45992;45.920;20.074;2022-09-19T18:02:54;14.57;;;10.90;;
58647;SDS011;45992;45.920;20.074;2022-09-19T18:05:39;13.23;;;8.65;;
58647;SDS011;45992;45.920;20.074;2022-09-19T18:08:05;10.37;;;6.47;;
58647;SDS011;45992;45.920;20.074;2022-09-19T18:10:32;11.55;;;5.82;;
58647;SDS011;45992;45.920;20.074;2022-09-19T18:12:58;8.73;;;4.65;;
58647;SDS011;45992;45.920;20.074;2022-09-19T18:18:31;10.73;;;6.00;;
58647;SDS011;45992;45.920;20.074;2022-09-19T18:23:27;17.25;;;8.43;;
58647;SDS011;45992;45.920;20.074;2022-09-19T18:25:58;20.85;;;7.97;;
58647;SDS011;45992;45.920;20.074;2022-09-19T18:28:25;18.50;;;8.40;;
58647;SDS011;45992;45.920;20.074;2022-09-19T18:33:54;17.25;;;7.35;;
58647;SDS011;45992;45.920;20.074;2022-09-19T18:36:21;16.70;;;6.68;;
58647;SDS011;45992;45.920;20.074;2022-09-19T18:38:48;17.52;;;8.35;;
58647;SDS011;45992;45.920;20.074;2022-09-19T18:41:18;18.42;;;8.73;;
58647;SDS011;45992;45.920;20.074;2022-09-19T18:43:44;19.27;;;9.00;;
58647;SDS011;45992;45.920;20.074;2022-09-19T18:49:14;15.82;;;7.85;;
58647;SDS011;45992;45.920;20.074;2022-09-19T18:51:41;17.33;;;7.72;;
58647;SDS011;45992;45.920;20.074;2022-09-19T18:54:07;14.73;;;7.13;;